sensor_id;sensor_type;location;lat;lon;timestamp;temperature;humidity
24518;DHT22;12678;51.336;12.406;2023-04-06T00:00:49;4.20;99.90
24518;DHT22;12678;51.336;12.406;2023-04-06T00:03:15;4.20;99.90
24518;DHT22;12678;51.336;12.406;2023-04-06T00:05:41;4.20;99.90
24518;DHT22;12678;51.336;12.406;2023-04-06T00:08:07;4.30;99.90
24518;DHT22;12678;51.336;12.406;2023-04-06T00:10:35;4.20;99.90
24518;DHT22;12678;51.336;12.406;2023-04-06T00:13:01;4.20;99.90
24518;DHT22;12678;51.336;12.406;2023-04-06T00:15:27;4.30;99.90
24518;DHT22;12678;51.336;12.406;2023-04-06T00:17:53;4.30;99.90
24518;DHT22;12678;51.336;12.406;2023-04-06T00:20:19;4.40;99.90
24518;DHT22;12678;51.336;12.406;2023-04-06T00:22:45;4.30;99.90
24518;DHT22;12678;51.336;12.406;2023-04-06T00:25:11;4.30;99.90
24518;DHT22;12678;51.336;12.406;2023-04-06T00:27:38;4.30;99.90
24518;DHT22;12678;51.336;12.406;2023-04-06T00:30:04;4.40;99.90
24518;DHT22;12678;51.336;12.406;2023-04-06T00:32:31;4.30;99.90
24518;DHT22;12678;51.336;12.406;2023-04-06T00:34:58;4.30;99.90
24518;DHT22;12678;51.336;12.406;2023-04-06T00:37:24;4.20;99.90
24518;DHT22;12678;51.336;12.406;2023-04-06T00:39:50;4.10;99.90
24518;DHT22;12678;51.336;12.406;2023-04-06T00:42:18;4.10;99.90
24518;DHT22;12678;51.336;12.406;2023-04-06T00:44:55;4.10;99.90
24518;DHT22;12678;51.336;12.406;2023-04-06T00:47:22;4.10;99.90
24518;DHT22;12678;51.336;12.406;2023-04-06T00:49:48;3.90;99.90
24518;DHT22;12678;51.336;12.406;2023-04-06T00:52:15;3.90;99.90
24518;DHT22;12678;51.336;12.406;2023-04-06T00:54:41;3.80;99.90
24518;DHT22;12678;51.336;12.406;2023-04-06T00:57:07;3.80;99.90
24518;DHT22;12678;51.336;12.406;2023-04-06T00:59:35;3.90;99.90
24518;DHT22;12678;51.336;12.406;2023-04-06T01:02:01;3.90;99.90
24518;DHT22;12678;51.336;12.406;2023-04-06T01:04:27;3.90;99.90
24518;DHT22;12678;51.336;12.406;2023-04-06T01:06:53;3.80;99.90
24518;DHT22;12678;51.336;12.406;2023-04-06T01:09:18;3.60;99.90
24518;DHT22;12678;51.336;12.406;2023-04-06T01:11:44;3.70;99.90
24518;DHT22;12678;51.336;12.406;2023-04-06T01:14:10;3.60;99.90
24518;DHT22;12678;51.336;12.406;2023-04-06T01:16:36;3.60;99.90
24518;DHT22;12678;51.336;12.406;2023-04-06T01:19:08;3.70;99.90
24518;DHT22;12678;51.336;12.406;2023-04-06T01:21:35;3.80;99.90
24518;DHT22;12678;51.336;12.406;2023-04-06T01:24:01;3.90;99.90
24518;DHT22;12678;51.336;12.406;2023-04-06T01:26:26;3.90;99.90
24518;DHT22;12678;51.336;12.406;2023-04-06T01:28:54;3.90;99.90
24518;DHT22;12678;51.336;12.406;2023-04-06T01:31:20;4.00;99.90
24518;DHT22;12678;51.336;12.406;2023-04-06T01:33:46;3.90;99.90
24518;DHT22;12678;51.336;12.406;2023-04-06T01:36:12;4.00;99.90
24518;DHT22;12678;51.336;12.406;2023-04-06T01:38:38;3.80;99.90
24518;DHT22;12678;51.336;12.406;2023-04-06T01:41:04;3.70;99.90
24518;DHT22;12678;51.336;12.406;2023-04-06T01:43:30;3.70;99.90
24518;DHT22;12678;51.336;12.406;2023-04-06T01:45:56;3.80;99.90
24518;DHT22;12678;51.336;12.406;2023-04-06T01:48:21;3.70;99.90
24518;DHT22;12678;51.336;12.406;2023-04-06T01:50:47;3.70;99.90
24518;DHT22;12678;51.336;12.406;2023-04-06T01:53:13;3.60;99.90
24518;DHT22;12678;51.336;12.406;2023-04-06T01:55:39;3.60;99.90
24518;DHT22;12678;51.336;12.406;2023-04-06T01:58:05;3.60;99.90
24518;DHT22;12678;51.336;12.406;2023-04-06T02:00:31;3.70;99.90
24518;DHT22;12678;51.336;12.406;2023-04-06T02:02:56;3.80;99.90
24518;DHT22;12678;51.336;12.406;2023-04-06T02:05:22;3.80;99.90
24518;DHT22;12678;51.336;12.406;2023-04-06T02:07:48;3.70;99.90
24518;DHT22;12678;51.336;12.406;2023-04-06T02:10:15;3.70;99.90
24518;DHT22;12678;51.336;12.406;2023-04-06T02:12:40;3.70;99.90
24518;DHT22;12678;51.336;12.406;2023-04-06T02:15:07;3.70;99.90
24518;DHT22;12678;51.336;12.406;2023-04-06T02:17:32;3.70;99.90
24518;DHT22;12678;51.336;12.406;2023-04-06T02:19:58;3.80;99.90
24518;DHT22;12678;51.336;12.406;2023-04-06T02:22:24;3.80;99.90
24518;DHT22;12678;51.336;12.406;2023-04-06T02:24:49;3.80;99.90
24518;DHT22;12678;51.336;12.406;2023-04-06T02:27:15;3.80;99.90
24518;DHT22;12678;51.336;12.406;2023-04-06T02:29:41;3.80;99.90
24518;DHT22;12678;51.336;12.406;2023-04-06T02:32:06;3.60;99.90
24518;DHT22;12678;51.336;12.406;2023-04-06T02:34:32;3.60;99.90
24518;DHT22;12678;51.336;12.406;2023-04-06T02:36:58;3.70;99.90
24518;DHT22;12678;51.336;12.406;2023-04-06T02:39:24;3.70;99.90
24518;DHT22;12678;51.336;12.406;2023-04-06T02:41:50;3.50;99.90
24518;DHT22;12678;51.336;12.406;2023-04-06T02:44:16;3.40;99.90
24518;DHT22;12678;51.336;12.406;2023-04-06T02:46:41;3.30;99.90
24518;DHT22;12678;51.336;12.406;2023-04-06T02:49:07;3.30;99.90
24518;DHT22;12678;51.336;12.406;2023-04-06T02:51:32;3.40;99.90
24518;DHT22;12678;51.336;12.406;2023-04-06T02:53:58;3.50;99.90
24518;DHT22;12678;51.336;12.406;2023-04-06T02:56:24;3.50;99.90
24518;DHT22;12678;51.336;12.406;2023-04-06T02:58:50;3.60;99.90
24518;DHT22;12678;51.336;12.406;2023-04-06T03:01:16;3.50;99.90
24518;DHT22;12678;51.336;12.406;2023-04-06T03:03:42;3.60;99.90
24518;DHT22;12678;51.336;12.406;2023-04-06T03:06:08;3.60;99.90
24518;DHT22;12678;51.336;12.406;2023-04-06T03:08:34;3.50;99.90
24518;DHT22;12678;51.336;12.406;2023-04-06T03:10:59;3.50;99.90
24518;DHT22;12678;51.336;12.406;2023-04-06T03:13:25;3.60;99.90
24518;DHT22;12678;51.336;12.406;2023-04-06T03:15:51;3.70;99.90
24518;DHT22;12678;51.336;12.406;2023-04-06T03:18:21;3.70;99.90
24518;DHT22;12678;51.336;12.406;2023-04-06T03:20:47;3.80;99.90
24518;DHT22;12678;51.336;12.406;2023-04-06T03:23:13;3.80;99.90
24518;DHT22;12678;51.336;12.406;2023-04-06T03:25:39;3.80;99.90
24518;DHT22;12678;51.336;12.406;2023-04-06T03:28:05;3.80;99.90
24518;DHT22;12678;51.336;12.406;2023-04-06T03:30:31;3.80;99.90
24518;DHT22;12678;51.336;12.406;2023-04-06T03:32:57;3.80;99.90
24518;DHT22;12678;51.336;12.406;2023-04-06T03:35:24;3.80;99.90
24518;DHT22;12678;51.336;12.406;2023-04-06T03:37:50;3.80;99.90
24518;DHT22;12678;51.336;12.406;2023-04-06T03:40:16;3.90;99.90
24518;DHT22;12678;51.336;12.406;2023-04-06T03:42:41;3.80;99.90
24518;DHT22;12678;51.336;12.406;2023-04-06T03:45:08;3.80;99.90
24518;DHT22;12678;51.336;12.406;2023-04-06T03:47:33;3.80;99.90
24518;DHT22;12678;51.336;12.406;2023-04-06T03:49:59;3.70;99.90
24518;DHT22;12678;51.336;12.406;2023-04-06T03:52:25;3.70;99.90
24518;DHT22;12678;51.336;12.406;2023-04-06T03:54:51;3.70;99.90
24518;DHT22;12678;51.336;12.406;2023-04-06T03:57:17;3.70;99.90
24518;DHT22;12678;51.336;12.406;2023-04-06T03:59:42;3.60;99.90
24518;DHT22;12678;51.336;12.406;2023-04-06T04:02:08;3.60;99.90
24518;DHT22;12678;51.336;12.406;2023-04-06T04:04:34;3.50;99.90
24518;DHT22;12678;51.336;12.406;2023-04-06T04:06:59;3.60;99.90
24518;DHT22;12678;51.336;12.406;2023-04-06T04:09:25;3.60;99.90
24518;DHT22;12678;51.336;12.406;2023-04-06T04:11:51;3.50;99.90
24518;DHT22;12678;51.336;12.406;2023-04-06T04:14:16;3.50;99.90
24518;DHT22;12678;51.336;12.406;2023-04-06T04:16:42;3.50;99.90
24518;DHT22;12678;51.336;12.406;2023-04-06T04:19:08;3.40;99.90
24518;DHT22;12678;51.336;12.406;2023-04-06T04:21:33;3.40;99.90
24518;DHT22;12678;51.336;12.406;2023-04-06T04:23:59;3.40;99.90
24518;DHT22;12678;51.336;12.406;2023-04-06T04:26:25;3.30;99.90
24518;DHT22;12678;51.336;12.406;2023-04-06T04:28:51;3.20;99.90
24518;DHT22;12678;51.336;12.406;2023-04-06T04:31:16;3.20;99.90
24518;DHT22;12678;51.336;12.406;2023-04-06T04:33:47;3.30;99.90
24518;DHT22;12678;51.336;12.406;2023-04-06T04:36:13;3.30;99.90
24518;DHT22;12678;51.336;12.406;2023-04-06T04:38:38;3.20;99.90
24518;DHT22;12678;51.336;12.406;2023-04-06T04:41:04;3.20;99.90
24518;DHT22;12678;51.336;12.406;2023-04-06T04:43:30;3.10;99.90
24518;DHT22;12678;51.336;12.406;2023-04-06T04:45:55;3.00;99.90
24518;DHT22;12678;51.336;12.406;2023-04-06T04:48:21;3.00;99.90
24518;DHT22;12678;51.336;12.406;2023-04-06T04:50:47;3.20;99.90
24518;DHT22;12678;51.336;12.406;2023-04-06T04:53:12;3.40;99.90
24518;DHT22;12678;51.336;12.406;2023-04-06T04:55:38;3.40;99.90
24518;DHT22;12678;51.336;12.406;2023-04-06T04:58:04;3.50;99.90
24518;DHT22;12678;51.336;12.406;2023-04-06T05:00:29;3.60;99.90
24518;DHT22;12678;51.336;12.406;2023-04-06T05:02:55;3.50;99.90
24518;DHT22;12678;51.336;12.406;2023-04-06T05:05:21;3.50;99.90
24518;DHT22;12678;51.336;12.406;2023-04-06T05:07:47;3.60;99.90
24518;DHT22;12678;51.336;12.406;2023-04-06T05:13:19;3.60;99.90
24518;DHT22;12678;51.336;12.406;2023-04-06T05:15:45;3.70;99.90
24518;DHT22;12678;51.336;12.406;2023-04-06T05:18:11;3.80;99.90
24518;DHT22;12678;51.336;12.406;2023-04-06T05:20:38;3.80;99.90
24518;DHT22;12678;51.336;12.406;2023-04-06T05:23:04;3.90;99.90
24518;DHT22;12678;51.336;12.406;2023-04-06T05:25:30;4.10;99.90
24518;DHT22;12678;51.336;12.406;2023-04-06T05:27:56;4.10;99.90
24518;DHT22;12678;51.336;12.406;2023-04-06T05:30:22;4.20;99.90
24518;DHT22;12678;51.336;12.406;2023-04-06T05:32:48;4.30;99.90
24518;DHT22;12678;51.336;12.406;2023-04-06T05:35:14;4.40;99.90
24518;DHT22;12678;51.336;12.406;2023-04-06T05:37:39;4.40;99.90
24518;DHT22;12678;51.336;12.406;2023-04-06T05:40:06;4.60;99.90
24518;DHT22;12678;51.336;12.406;2023-04-06T05:42:42;4.70;99.90
24518;DHT22;12678;51.336;12.406;2023-04-06T05:45:09;4.70;99.90
24518;DHT22;12678;51.336;12.406;2023-04-06T05:47:45;4.70;99.90
24518;DHT22;12678;51.336;12.406;2023-04-06T05:50:11;4.60;99.90
24518;DHT22;12678;51.336;12.406;2023-04-06T05:52:38;4.70;99.90
24518;DHT22;12678;51.336;12.406;2023-04-06T05:55:08;4.80;99.90
24518;DHT22;12678;51.336;12.406;2023-04-06T05:57:34;4.80;99.90
24518;DHT22;12678;51.336;12.406;2023-04-06T06:00:13;4.80;99.90
24518;DHT22;12678;51.336;12.406;2023-04-06T06:02:39;4.70;99.90
24518;DHT22;12678;51.336;12.406;2023-04-06T06:05:08;4.80;99.90
24518;DHT22;12678;51.336;12.406;2023-04-06T06:07:34;4.80;99.90
24518;DHT22;12678;51.336;12.406;2023-04-06T06:10:00;4.90;99.90
24518;DHT22;12678;51.336;12.406;2023-04-06T06:12:26;5.00;99.90
24518;DHT22;12678;51.336;12.406;2023-04-06T06:14:52;5.10;99.90
24518;DHT22;12678;51.336;12.406;2023-04-06T06:17:18;5.10;99.90
24518;DHT22;12678;51.336;12.406;2023-04-06T06:19:43;5.20;99.90
24518;DHT22;12678;51.336;12.406;2023-04-06T06:22:09;5.20;99.90
24518;DHT22;12678;51.336;12.406;2023-04-06T06:24:35;5.30;99.90
24518;DHT22;12678;51.336;12.406;2023-04-06T06:27:01;5.40;99.90
24518;DHT22;12678;51.336;12.406;2023-04-06T06:29:27;5.50;99.90
24518;DHT22;12678;51.336;12.406;2023-04-06T06:31:52;5.90;99.90
24518;DHT22;12678;51.336;12.406;2023-04-06T06:34:19;6.10;99.90
24518;DHT22;12678;51.336;12.406;2023-04-06T06:36:47;6.40;99.90
24518;DHT22;12678;51.336;12.406;2023-04-06T06:39:12;6.70;99.90
24518;DHT22;12678;51.336;12.406;2023-04-06T06:41:38;6.90;99.90
24518;DHT22;12678;51.336;12.406;2023-04-06T06:44:04;7.00;99.90
24518;DHT22;12678;51.336;12.406;2023-04-06T06:46:32;7.10;99.90
24518;DHT22;12678;51.336;12.406;2023-04-06T06:48:58;7.10;99.90
24518;DHT22;12678;51.336;12.406;2023-04-06T06:51:27;7.30;99.90
24518;DHT22;12678;51.336;12.406;2023-04-06T06:53:53;7.40;99.90
24518;DHT22;12678;51.336;12.406;2023-04-06T06:56:19;7.30;99.90
24518;DHT22;12678;51.336;12.406;2023-04-06T06:58:54;7.30;99.90
24518;DHT22;12678;51.336;12.406;2023-04-06T07:01:20;7.40;99.90
24518;DHT22;12678;51.336;12.406;2023-04-06T07:03:46;7.50;99.90
24518;DHT22;12678;51.336;12.406;2023-04-06T07:06:12;7.50;99.90
24518;DHT22;12678;51.336;12.406;2023-04-06T07:08:38;7.50;99.90
24518;DHT22;12678;51.336;12.406;2023-04-06T07:11:03;7.60;99.90
24518;DHT22;12678;51.336;12.406;2023-04-06T07:13:29;7.80;99.90
24518;DHT22;12678;51.336;12.406;2023-04-06T07:15:55;7.90;99.90
24518;DHT22;12678;51.336;12.406;2023-04-06T07:18:20;7.90;99.90
24518;DHT22;12678;51.336;12.406;2023-04-06T07:20:46;8.10;99.90
24518;DHT22;12678;51.336;12.406;2023-04-06T07:23:12;8.20;98.90
24518;DHT22;12678;51.336;12.406;2023-04-06T07:25:38;8.20;98.00
24518;DHT22;12678;51.336;12.406;2023-04-06T07:28:04;8.20;98.30
24518;DHT22;12678;51.336;12.406;2023-04-06T07:30:30;8.30;98.00
24518;DHT22;12678;51.336;12.406;2023-04-06T07:32:57;8.40;97.10
24518;DHT22;12678;51.336;12.406;2023-04-06T07:35:26;8.60;98.00
24518;DHT22;12678;51.336;12.406;2023-04-06T07:37:53;8.90;97.10
24518;DHT22;12678;51.336;12.406;2023-04-06T07:40:19;9.30;96.40
24518;DHT22;12678;51.336;12.406;2023-04-06T07:42:45;9.70;95.50
24518;DHT22;12678;51.336;12.406;2023-04-06T07:45:11;10.10;93.70
24518;DHT22;12678;51.336;12.406;2023-04-06T07:47:37;10.20;92.20
24518;DHT22;12678;51.336;12.406;2023-04-06T07:50:03;10.30;91.70
24518;DHT22;12678;51.336;12.406;2023-04-06T07:52:29;10.50;91.90
24518;DHT22;12678;51.336;12.406;2023-04-06T07:54:55;10.90;90.40
24518;DHT22;12678;51.336;12.406;2023-04-06T07:57:22;11.40;89.00
24518;DHT22;12678;51.336;12.406;2023-04-06T07:59:48;11.70;85.20
24518;DHT22;12678;51.336;12.406;2023-04-06T08:02:13;11.90;82.60
24518;DHT22;12678;51.336;12.406;2023-04-06T08:04:39;12.20;82.00
24518;DHT22;12678;51.336;12.406;2023-04-06T08:07:05;12.50;79.70
24518;DHT22;12678;51.336;12.406;2023-04-06T08:09:31;12.80;78.30
24518;DHT22;12678;51.336;12.406;2023-04-06T08:12:06;13.20;75.50
24518;DHT22;12678;51.336;12.406;2023-04-06T08:14:32;13.30;74.10
24518;DHT22;12678;51.336;12.406;2023-04-06T08:16:58;13.30;72.60
24518;DHT22;12678;51.336;12.406;2023-04-06T08:19:24;13.40;72.30
24518;DHT22;12678;51.336;12.406;2023-04-06T08:21:54;13.40;72.20
24518;DHT22;12678;51.336;12.406;2023-04-06T08:24:20;13.30;72.40
24518;DHT22;12678;51.336;12.406;2023-04-06T08:26:47;13.70;71.40
24518;DHT22;12678;51.336;12.406;2023-04-06T08:29:13;13.90;70.70
24518;DHT22;12678;51.336;12.406;2023-04-06T08:31:39;14.00;69.30
24518;DHT22;12678;51.336;12.406;2023-04-06T08:34:04;13.90;68.50
24518;DHT22;12678;51.336;12.406;2023-04-06T08:36:33;13.70;68.60
24518;DHT22;12678;51.336;12.406;2023-04-06T08:38:59;13.80;69.00
24518;DHT22;12678;51.336;12.406;2023-04-06T08:41:25;13.80;69.10
24518;DHT22;12678;51.336;12.406;2023-04-06T08:44:01;14.00;67.40
24518;DHT22;12678;51.336;12.406;2023-04-06T08:46:28;14.00;67.50
24518;DHT22;12678;51.336;12.406;2023-04-06T08:48:59;14.00;66.10
24518;DHT22;12678;51.336;12.406;2023-04-06T08:51:26;14.00;67.70
24518;DHT22;12678;51.336;12.406;2023-04-06T08:53:53;13.90;68.30
24518;DHT22;12678;51.336;12.406;2023-04-06T08:56:27;14.10;67.70
24518;DHT22;12678;51.336;12.406;2023-04-06T08:58:54;14.20;65.90
24518;DHT22;12678;51.336;12.406;2023-04-06T09:01:25;14.10;65.30
24518;DHT22;12678;51.336;12.406;2023-04-06T09:03:57;13.80;64.20
24518;DHT22;12678;51.336;12.406;2023-04-06T09:06:24;13.80;65.30
24518;DHT22;12678;51.336;12.406;2023-04-06T09:08:52;13.80;64.80
24518;DHT22;12678;51.336;12.406;2023-04-06T09:11:17;13.50;64.50
24518;DHT22;12678;51.336;12.406;2023-04-06T09:13:50;13.40;65.80
24518;DHT22;12678;51.336;12.406;2023-04-06T09:16:16;13.60;66.20
24518;DHT22;12678;51.336;12.406;2023-04-06T09:18:44;13.90;65.80
24518;DHT22;12678;51.336;12.406;2023-04-06T09:21:11;14.10;64.00
24518;DHT22;12678;51.336;12.406;2023-04-06T09:23:37;13.70;62.10
24518;DHT22;12678;51.336;12.406;2023-04-06T09:26:14;13.70;63.20
24518;DHT22;12678;51.336;12.406;2023-04-06T09:28:51;13.90;64.60
24518;DHT22;12678;51.336;12.406;2023-04-06T09:31:24;13.80;63.60
24518;DHT22;12678;51.336;12.406;2023-04-06T09:33:51;13.70;63.90
24518;DHT22;12678;51.336;12.406;2023-04-06T09:36:18;13.50;63.40
24518;DHT22;12678;51.336;12.406;2023-04-06T09:38:53;13.30;62.00
24518;DHT22;12678;51.336;12.406;2023-04-06T09:41:27;13.40;63.30
24518;DHT22;12678;51.336;12.406;2023-04-06T09:44:09;13.80;63.20
24518;DHT22;12678;51.336;12.406;2023-04-06T09:46:40;13.90;59.80
24518;DHT22;12678;51.336;12.406;2023-04-06T09:49:07;14.10;58.80
24518;DHT22;12678;51.336;12.406;2023-04-06T09:51:41;14.20;59.60
24518;DHT22;12678;51.336;12.406;2023-04-06T09:54:11;14.00;58.20
24518;DHT22;12678;51.336;12.406;2023-04-06T09:56:47;14.30;58.60
24518;DHT22;12678;51.336;12.406;2023-04-06T10:01:51;14.30;56.20
24518;DHT22;12678;51.336;12.406;2023-04-06T10:04:43;14.00;56.10
24518;DHT22;12678;51.336;12.406;2023-04-06T10:07:09;14.00;57.20
24518;DHT22;12678;51.336;12.406;2023-04-06T10:09:37;13.80;55.70
24518;DHT22;12678;51.336;12.406;2023-04-06T10:12:04;13.60;56.40
24518;DHT22;12678;51.336;12.406;2023-04-06T10:14:34;13.20;57.90
24518;DHT22;12678;51.336;12.406;2023-04-06T10:17:05;13.40;58.60
24518;DHT22;12678;51.336;12.406;2023-04-06T10:22:10;13.70;58.30
24518;DHT22;12678;51.336;12.406;2023-04-06T10:24:37;13.90;58.20
24518;DHT22;12678;51.336;12.406;2023-04-06T10:27:04;13.90;57.40
24518;DHT22;12678;51.336;12.406;2023-04-06T10:29:45;14.10;58.30
24518;DHT22;12678;51.336;12.406;2023-04-06T10:32:12;13.90;57.20
24518;DHT22;12678;51.336;12.406;2023-04-06T10:34:37;13.90;58.60
24518;DHT22;12678;51.336;12.406;2023-04-06T10:37:16;13.90;57.10
24518;DHT22;12678;51.336;12.406;2023-04-06T10:39:54;13.80;56.90
24518;DHT22;12678;51.336;12.406;2023-04-06T10:42:25;13.70;56.40
24518;DHT22;12678;51.336;12.406;2023-04-06T10:45:01;13.40;55.50
24518;DHT22;12678;51.336;12.406;2023-04-06T10:47:39;12.90;56.20
24518;DHT22;12678;51.336;12.406;2023-04-06T10:50:05;12.80;57.10
24518;DHT22;12678;51.336;12.406;2023-04-06T10:52:31;13.00;59.10
24518;DHT22;12678;51.336;12.406;2023-04-06T10:54:57;13.30;58.90
24518;DHT22;12678;51.336;12.406;2023-04-06T10:57:32;13.50;57.60
24518;DHT22;12678;51.336;12.406;2023-04-06T10:59:58;13.60;56.40
24518;DHT22;12678;51.336;12.406;2023-04-06T11:02:24;13.60;57.20
24518;DHT22;12678;51.336;12.406;2023-04-06T11:04:56;13.70;57.30
24518;DHT22;12678;51.336;12.406;2023-04-06T11:07:23;13.80;56.80
24518;DHT22;12678;51.336;12.406;2023-04-06T11:09:49;13.20;56.20
24518;DHT22;12678;51.336;12.406;2023-04-06T11:12:26;12.90;56.20
24518;DHT22;12678;51.336;12.406;2023-04-06T11:14:59;13.10;58.50
24518;DHT22;12678;51.336;12.406;2023-04-06T11:17:31;13.20;57.70
24518;DHT22;12678;51.336;12.406;2023-04-06T11:19:58;13.30;57.90
24518;DHT22;12678;51.336;12.406;2023-04-06T11:22:25;13.10;57.10
24518;DHT22;12678;51.336;12.406;2023-04-06T11:24:51;13.20;57.00
24518;DHT22;12678;51.336;12.406;2023-04-06T11:27:18;13.30;57.20
24518;DHT22;12678;51.336;12.406;2023-04-06T11:29:44;13.40;56.20
24518;DHT22;12678;51.336;12.406;2023-04-06T11:32:11;13.50;55.70
24518;DHT22;12678;51.336;12.406;2023-04-06T11:34:47;13.40;56.90
24518;DHT22;12678;51.336;12.406;2023-04-06T11:37:13;13.40;56.30
24518;DHT22;12678;51.336;12.406;2023-04-06T11:39:49;13.20;55.90
24518;DHT22;12678;51.336;12.406;2023-04-06T11:42:28;12.70;55.50
24518;DHT22;12678;51.336;12.406;2023-04-06T11:44:58;12.80;56.90
24518;DHT22;12678;51.336;12.406;2023-04-06T11:47:37;12.50;57.30
24518;DHT22;12678;51.336;12.406;2023-04-06T11:50:13;12.30;57.20
24518;DHT22;12678;51.336;12.406;2023-04-06T11:52:40;12.20;57.10
24518;DHT22;12678;51.336;12.406;2023-04-06T11:55:14;12.20;57.00
24518;DHT22;12678;51.336;12.406;2023-04-06T11:57:41;12.20;56.70
24518;DHT22;12678;51.336;12.406;2023-04-06T12:00:10;12.40;57.20
24518;DHT22;12678;51.336;12.406;2023-04-06T12:02:37;12.60;57.50
24518;DHT22;12678;51.336;12.406;2023-04-06T12:05:04;12.40;56.40
24518;DHT22;12678;51.336;12.406;2023-04-06T12:07:36;12.40;56.30
24518;DHT22;12678;51.336;12.406;2023-04-06T12:10:03;12.30;56.40
24518;DHT22;12678;51.336;12.406;2023-04-06T12:12:29;12.30;56.00
24518;DHT22;12678;51.336;12.406;2023-04-06T12:14:56;12.20;56.10
24518;DHT22;12678;51.336;12.406;2023-04-06T12:17:22;12.00;56.20
24518;DHT22;12678;51.336;12.406;2023-04-06T12:19:47;12.00;56.80
24518;DHT22;12678;51.336;12.406;2023-04-06T12:22:13;12.00;57.20
24518;DHT22;12678;51.336;12.406;2023-04-06T12:24:38;12.10;57.40
24518;DHT22;12678;51.336;12.406;2023-04-06T12:27:04;12.20;57.30
24518;DHT22;12678;51.336;12.406;2023-04-06T12:29:30;12.30;57.20
24518;DHT22;12678;51.336;12.406;2023-04-06T12:31:55;12.20;56.10
24518;DHT22;12678;51.336;12.406;2023-04-06T12:34:21;12.30;57.20
24518;DHT22;12678;51.336;12.406;2023-04-06T12:36:47;12.50;57.90
24518;DHT22;12678;51.336;12.406;2023-04-06T12:39:12;12.60;57.40
24518;DHT22;12678;51.336;12.406;2023-04-06T12:41:38;12.60;57.90
24518;DHT22;12678;51.336;12.406;2023-04-06T12:44:06;12.60;56.80
24518;DHT22;12678;51.336;12.406;2023-04-06T12:46:32;12.70;57.20
24518;DHT22;12678;51.336;12.406;2023-04-06T12:48:58;12.70;57.40
24518;DHT22;12678;51.336;12.406;2023-04-06T12:51:27;12.70;57.70
24518;DHT22;12678;51.336;12.406;2023-04-06T12:53:53;12.60;56.80
24518;DHT22;12678;51.336;12.406;2023-04-06T12:56:19;12.60;57.00
24518;DHT22;12678;51.336;12.406;2023-04-06T12:58:46;12.50;56.80
24518;DHT22;12678;51.336;12.406;2023-04-06T13:01:13;12.30;56.30
24518;DHT22;12678;51.336;12.406;2023-04-06T13:03:41;12.20;56.60
24518;DHT22;12678;51.336;12.406;2023-04-06T13:06:07;12.30;56.60
24518;DHT22;12678;51.336;12.406;2023-04-06T13:08:36;12.30;56.50
24518;DHT22;12678;51.336;12.406;2023-04-06T13:11:03;12.10;56.00
24518;DHT22;12678;51.336;12.406;2023-04-06T13:13:30;12.00;56.20
24518;DHT22;12678;51.336;12.406;2023-04-06T13:16:01;12.10;56.80
24518;DHT22;12678;51.336;12.406;2023-04-06T13:18:29;12.10;56.20
24518;DHT22;12678;51.336;12.406;2023-04-06T13:20:56;12.10;56.10
24518;DHT22;12678;51.336;12.406;2023-04-06T13:23:22;12.00;56.30
24518;DHT22;12678;51.336;12.406;2023-04-06T13:25:49;12.10;57.10
24518;DHT22;12678;51.336;12.406;2023-04-06T13:28:21;12.20;57.20
24518;DHT22;12678;51.336;12.406;2023-04-06T13:30:48;12.30;58.10
24518;DHT22;12678;51.336;12.406;2023-04-06T13:33:14;12.40;57.10
24518;DHT22;12678;51.336;12.406;2023-04-06T13:35:39;12.40;56.20
24518;DHT22;12678;51.336;12.406;2023-04-06T13:38:05;12.40;57.70
24518;DHT22;12678;51.336;12.406;2023-04-06T13:40:31;12.20;54.60
24518;DHT22;12678;51.336;12.406;2023-04-06T13:42:56;12.00;54.80
24518;DHT22;12678;51.336;12.406;2023-04-06T13:45:22;12.10;55.90
24518;DHT22;12678;51.336;12.406;2023-04-06T13:47:48;12.20;56.80
24518;DHT22;12678;51.336;12.406;2023-04-06T13:50:13;12.30;57.00
24518;DHT22;12678;51.336;12.406;2023-04-06T13:52:39;12.10;56.70
24518;DHT22;12678;51.336;12.406;2023-04-06T13:55:04;12.10;56.40
24518;DHT22;12678;51.336;12.406;2023-04-06T13:57:30;12.00;56.70
24518;DHT22;12678;51.336;12.406;2023-04-06T13:59:56;12.00;57.10
24518;DHT22;12678;51.336;12.406;2023-04-06T14:02:21;12.10;57.50
24518;DHT22;12678;51.336;12.406;2023-04-06T14:04:52;12.10;57.30
24518;DHT22;12678;51.336;12.406;2023-04-06T14:07:19;12.10;56.90
24518;DHT22;12678;51.336;12.406;2023-04-06T14:09:44;12.10;57.10
24518;DHT22;12678;51.336;12.406;2023-04-06T14:12:10;12.10;57.30
24518;DHT22;12678;51.336;12.406;2023-04-06T14:14:36;12.10;57.40
24518;DHT22;12678;51.336;12.406;2023-04-06T14:17:02;12.10;57.30
24518;DHT22;12678;51.336;12.406;2023-04-06T14:19:28;12.00;57.40
24518;DHT22;12678;51.336;12.406;2023-04-06T14:21:53;12.00;56.90
24518;DHT22;12678;51.336;12.406;2023-04-06T14:24:20;11.90;57.10
24518;DHT22;12678;51.336;12.406;2023-04-06T14:26:46;11.90;57.40
24518;DHT22;12678;51.336;12.406;2023-04-06T14:29:11;11.80;57.10
24518;DHT22;12678;51.336;12.406;2023-04-06T14:31:37;11.90;57.50
24518;DHT22;12678;51.336;12.406;2023-04-06T14:34:03;11.90;57.90
24518;DHT22;12678;51.336;12.406;2023-04-06T14:36:32;11.90;58.40
24518;DHT22;12678;51.336;12.406;2023-04-06T14:39:05;12.00;57.80
24518;DHT22;12678;51.336;12.406;2023-04-06T14:41:31;12.10;57.90
24518;DHT22;12678;51.336;12.406;2023-04-06T14:43:57;12.10;57.80
24518;DHT22;12678;51.336;12.406;2023-04-06T14:46:23;12.20;57.30
24518;DHT22;12678;51.336;12.406;2023-04-06T14:48:49;12.00;56.90
24518;DHT22;12678;51.336;12.406;2023-04-06T14:51:14;11.90;57.60
24518;DHT22;12678;51.336;12.406;2023-04-06T14:53:40;11.70;56.70
24518;DHT22;12678;51.336;12.406;2023-04-06T14:56:06;11.60;56.70
24518;DHT22;12678;51.336;12.406;2023-04-06T14:58:32;11.60;57.00
24518;DHT22;12678;51.336;12.406;2023-04-06T15:00:58;11.60;56.70
24518;DHT22;12678;51.336;12.406;2023-04-06T15:03:44;11.60;57.30
24518;DHT22;12678;51.336;12.406;2023-04-06T15:06:14;11.60;58.60
24518;DHT22;12678;51.336;12.406;2023-04-06T15:08:41;11.70;59.40
24518;DHT22;12678;51.336;12.406;2023-04-06T15:11:07;11.70;58.40
24518;DHT22;12678;51.336;12.406;2023-04-06T15:13:33;11.60;57.80
24518;DHT22;12678;51.336;12.406;2023-04-06T15:15:59;11.60;58.10
24518;DHT22;12678;51.336;12.406;2023-04-06T15:18:25;11.60;57.90
24518;DHT22;12678;51.336;12.406;2023-04-06T15:20:51;11.60;58.00
24518;DHT22;12678;51.336;12.406;2023-04-06T15:23:17;11.60;57.70
24518;DHT22;12678;51.336;12.406;2023-04-06T15:25:43;11.60;58.10
24518;DHT22;12678;51.336;12.406;2023-04-06T15:28:09;11.60;58.50
24518;DHT22;12678;51.336;12.406;2023-04-06T15:30:35;11.50;58.10